createdAt,value
2022-08-01T00:00:51.068Z,64.55
2022-08-01T00:03:18.367Z,65.09
2022-08-01T00:05:46.422Z,64.25
2022-08-01T00:08:13.762Z,63.31
2022-08-01T00:10:43.458Z,62.85
2022-08-01T00:13:10.895Z,62.60
2022-08-01T00:15:38.606Z,62.44
2022-08-01T00:18:06.077Z,64.01
2022-08-01T00:20:33.294Z,63.90
2022-08-01T00:23:03.633Z,64.19
2022-08-01T00:25:33.523Z,62.63
2022-08-01T00:28:02.478Z,63.53
2022-08-01T00:30:32.126Z,63.28
2022-08-01T00:32:59.558Z,63.14
2022-08-01T00:35:26.906Z,64.06
2022-08-01T00:37:54.211Z,63.49
2022-08-01T00:40:22.149Z,63.19
2022-08-01T00:42:51.863Z,63.22
2022-08-01T00:45:19.275Z,62.28
2022-08-01T00:47:46.711Z,62.88
2022-08-01T00:50:14.118Z,62.23
2022-08-01T00:52:42.095Z,64.08
2022-08-01T00:55:13.199Z,64.20
2022-08-01T00:58:03.363Z,64.28
2022-08-01T01:00:30.104Z,63.91
2022-08-01T01:02:57.948Z,64.21
2022-08-01T01:05:25.193Z,64.36
2022-08-01T01:08:05.968Z,64.62
2022-08-01T01:10:38.193Z,64.45
2022-08-01T01:13:08.287Z,64.56
2022-08-01T01:15:42.520Z,63.73
2022-08-01T01:18:09.701Z,63.88
2022-08-01T01:20:38.703Z,64.20
2022-08-01T01:23:15.044Z,63.53
2022-08-01T01:26:03.409Z,63.29
2022-08-01T01:29:05.072Z,63.11
2022-08-01T01:31:37.560Z,62.99
2022-08-01T01:34:05.518Z,62.53
2022-08-01T01:36:33.619Z,63.10
2022-08-01T01:39:01.733Z,63.59
2022-08-01T01:41:29.821Z,63.63
2022-08-01T01:43:57.796Z,63.97
2022-08-01T01:46:28.098Z,63.80
2022-08-01T01:48:55.518Z,64.63
2022-08-01T01:51:24.382Z,64.37
2022-08-01T01:53:54.141Z,63.45
2022-08-01T01:56:22.109Z,63.33
2022-08-01T01:59:01.906Z,63.34
2022-08-01T02:02:05.049Z,63.20
2022-08-01T02:04:21.361Z,63.65
2022-08-01T02:06:51.283Z,63.73
2022-08-01T02:09:20.706Z,64.26
2022-08-01T02:12:09.287Z,63.85
2022-08-01T02:14:36.935Z,64.67
2022-08-01T02:17:07.666Z,63.37
2022-08-01T02:19:37.900Z,63.08
2022-08-01T02:22:07.540Z,63.70
2022-08-01T02:24:49.990Z,63.90
2022-08-01T02:27:24.075Z,63.24
2022-08-01T02:29:55.202Z,63.52
2022-08-01T02:32:31.777Z,63.92
2022-08-01T02:35:01.921Z,64.10
2022-08-01T02:37:29.923Z,64.39
2022-08-01T02:39:57.502Z,64.40
2022-08-01T02:42:26.793Z,64.39
2022-08-01T02:44:55.430Z,63.92
2022-08-01T02:47:23.652Z,63.20
2022-08-01T02:49:53.950Z,63.30
2022-08-01T02:52:22.551Z,64.20
2022-08-01T02:54:52.662Z,64.58
2022-08-01T02:57:19.869Z,64.49
2022-08-01T02:59:49.214Z,64.69
2022-08-01T03:02:18.169Z,65.12
2022-08-01T03:04:45.817Z,64.89
2022-08-01T03:07:14.225Z,64.50
2022-08-01T03:09:44.302Z,65.79
2022-08-01T03:12:12.710Z,66.10
2022-08-01T03:14:41.164Z,66.08
2022-08-01T03:17:09.493Z,66.14
2022-08-01T03:19:38.902Z,66.47
2022-08-01T03:22:26.538Z,66.59
2022-08-01T03:24:54.693Z,66.00
2022-08-01T03:27:22.712Z,66.81
2022-08-01T03:29:50.417Z,67.04
2022-08-01T03:32:19.251Z,69.48
2022-08-01T03:34:46.886Z,69.07
2022-08-01T03:37:25.672Z,68.45
2022-08-01T03:39:59.951Z,70.45
2022-08-01T03:42:37.639Z,71.50
2022-08-01T03:45:13.325Z,71.27
2022-08-01T03:47:44.941Z,69.90
2022-08-01T03:50:14.805Z,69.14
2022-08-01T03:52:44.852Z,68.30
2022-08-01T03:55:12.415Z,68.47
2022-08-01T03:57:40.304Z,69.35
2022-08-01T04:00:10.055Z,69.10
2022-08-01T04:02:40.718Z,67.51
2022-08-01T04:05:08.625Z,66.99
2022-08-01T04:07:40.329Z,66.96
2022-08-01T04:10:08.184Z,67.95
2022-08-01T04:12:35.546Z,68.56
2022-08-01T04:15:03.374Z,68.77
2022-08-01T04:17:30.694Z,68.93
2022-08-01T04:19:57.958Z,68.56
2022-08-01T04:22:25.220Z,67.70
2022-08-01T04:24:57.060Z,66.71
2022-08-01T04:27:49.091Z,66.89
2022-08-01T04:30:27.686Z,67.65
2022-08-01T04:32:56.920Z,67.63
2022-08-01T04:36:01.504Z,67.21
2022-08-01T04:38:18.200Z,66.94
2022-08-01T04:40:48.842Z,67.39
2022-08-01T04:43:16.140Z,66.73
2022-08-01T04:45:44.830Z,66.62
2022-08-01T04:48:12.427Z,65.81
2022-08-01T04:50:42.781Z,66.33
2022-08-01T04:53:20.122Z,66.39
2022-08-01T04:55:47.532Z,67.37
2022-08-01T04:58:18.184Z,67.27
2022-08-01T05:00:47.464Z,66.97
2022-08-01T05:03:15.134Z,66.98
2022-08-01T05:05:42.395Z,66.79
2022-08-01T05:08:09.891Z,66.22
2022-08-01T05:10:38.323Z,66.43
2022-08-01T05:13:07.553Z,66.87
2022-08-01T05:15:37.771Z,67.08
2022-08-01T05:18:05.294Z,67.66
2022-08-01T05:20:35.510Z,67.84
2022-08-01T05:23:03.272Z,68.41
2022-08-01T05:25:55.887Z,68.37
2022-08-01T05:28:19.059Z,68.01
2022-08-01T05:30:46.604Z,68.08
2022-08-01T05:33:13.923Z,68.79
2022-08-01T05:35:48.967Z,70.39
2022-08-01T05:38:17.013Z,70.37
2022-08-01T05:40:44.265Z,69.04
2022-08-01T05:43:11.549Z,67.09
2022-08-01T05:45:38.830Z,66.77
2022-08-01T05:48:06.273Z,67.54
2022-08-01T05:50:34.612Z,66.09
2022-08-01T05:53:01.946Z,66.52
2022-08-01T05:55:29.391Z,66.53
2022-08-01T05:57:56.750Z,66.26
2022-08-01T06:00:24.036Z,66.46
2022-08-01T06:02:51.321Z,66.85
2022-08-01T06:05:18.601Z,67.53
2022-08-01T06:07:45.860Z,67.99
2022-08-01T06:10:13.207Z,66.65
2022-08-01T06:12:40.533Z,67.59
2022-08-01T06:15:08.418Z,66.54
2022-08-01T06:17:35.933Z,65.42
2022-08-01T06:20:04.466Z,66.56
2022-08-01T06:22:31.809Z,66.40
2022-08-01T06:25:00.213Z,66.82
2022-08-01T06:27:27.542Z,66.61
2022-08-01T06:29:54.781Z,66.16
2022-08-01T06:32:27.891Z,67.62
2022-08-01T06:34:56.007Z,68.99
2022-08-01T06:37:24.023Z,68.96
2022-08-01T06:39:51.412Z,70.14
2022-08-01T06:42:18.915Z,71.51
2022-08-01T06:44:46.714Z,71.80
2022-08-01T06:47:14.023Z,70.49
2022-08-01T06:49:41.389Z,68.90
2022-08-01T06:52:09.248Z,68.75
2022-08-01T06:54:36.856Z,68.96
2022-08-01T06:57:07.124Z,69.11
2022-08-01T06:59:34.540Z,69.71
2022-08-01T07:02:02.472Z,69.13
2022-08-01T07:04:30.192Z,68.38
2022-08-01T07:06:57.995Z,71.19
2022-08-01T07:09:25.304Z,70.02
2022-08-01T07:11:53.486Z,69.88
2022-08-01T07:14:21.694Z,69.73
2022-08-01T07:16:49.198Z,68.00
2022-08-01T07:19:16.728Z,66.96
2022-08-01T07:21:45.338Z,67.83
2022-08-01T07:24:15.031Z,68.73
2022-08-01T07:26:54.067Z,69.69
2022-08-01T07:29:23.757Z,69.35
2022-08-01T07:31:52.557Z,68.08
2022-08-01T07:34:20.079Z,70.23
2022-08-01T07:36:47.351Z,69.23
2022-08-01T07:39:14.620Z,68.86
2022-08-01T07:41:53.469Z,67.73
2022-08-01T07:44:29.464Z,65.44
2022-08-01T07:46:56.834Z,65.53
2022-08-01T07:49:24.180Z,66.84
2022-08-01T07:52:03.222Z,68.44
2022-08-01T07:54:34.239Z,66.68
2022-08-01T07:57:02.554Z,66.23
2022-08-01T07:59:29.821Z,65.61
2022-08-01T08:01:57.790Z,65.01
2022-08-01T08:04:25.520Z,64.33
2022-08-01T08:06:54.416Z,63.85
2022-08-01T08:09:21.920Z,65.30
2022-08-01T08:11:49.284Z,65.90
2022-08-01T08:14:17.650Z,64.52
2022-08-01T08:16:45.211Z,64.22
2022-08-01T08:19:13.044Z,63.67
2022-08-01T08:21:40.476Z,63.28
2022-08-01T08:24:25.936Z,61.54
2022-08-01T08:26:59.395Z,62.47
2022-08-01T08:29:28.472Z,62.09
2022-08-01T08:31:57.007Z,62.24
2022-08-01T08:34:25.061Z,61.31
2022-08-01T08:36:52.655Z,60.57
2022-08-01T08:39:20.986Z,61.25
2022-08-01T08:41:49.462Z,60.00
2022-08-01T08:44:18.587Z,59.36
2022-08-01T08:46:48.913Z,59.48
2022-08-01T08:49:19.819Z,59.10
2022-08-01T08:51:50.015Z,57.86
2022-08-01T08:54:19.416Z,56.86
2022-08-01T08:56:47.464Z,55.03
2022-08-01T08:59:15.193Z,54.87
2022-08-01T09:01:43.499Z,55.36
2022-08-01T09:04:11.974Z,55.41
2022-08-01T09:06:39.736Z,54.36
2022-08-01T09:09:08.732Z,53.52
2022-08-01T09:11:36.501Z,54.70
2022-08-01T09:14:16.099Z,54.83
2022-08-01T09:16:48.827Z,53.38
2022-08-01T09:19:39.915Z,55.02
2022-08-01T09:22:09.217Z,57.17
2022-08-01T09:24:37.569Z,57.66
2022-08-01T09:27:22.380Z,57.47
2022-08-01T09:30:01.208Z,56.31
2022-08-01T09:32:35.204Z,55.76
2022-08-01T09:35:31.266Z,56.96
2022-08-01T09:38:19.048Z,56.86
2022-08-01T09:40:51.368Z,56.13
2022-08-01T09:43:20.073Z,56.31
2022-08-01T09:45:49.102Z,57.69
2022-08-01T09:48:20.470Z,57.25
2022-08-01T09:50:54.304Z,56.61
2022-08-01T09:53:28.663Z,57.89
2022-08-01T09:56:10.700Z,57.41
2022-08-01T09:59:01.649Z,56.42
2022-08-01T10:01:43.275Z,55.51
2022-08-01T10:04:15.278Z,55.15
2022-08-01T10:06:46.740Z,55.85
2022-08-01T10:09:14.891Z,55.83
2022-08-01T10:11:44.993Z,56.82
2022-08-01T10:14:17.709Z,58.28
2022-08-01T10:16:46.460Z,59.04
2022-08-01T10:19:28.699Z,58.29
2022-08-01T10:21:59.312Z,58.00
2022-08-01T10:24:30.328Z,56.44
2022-08-01T10:27:07.990Z,55.79
2022-08-01T10:30:05.257Z,55.23
2022-08-01T10:32:39.460Z,55.28
2022-08-01T10:35:14.771Z,54.27
2022-08-01T10:37:52.165Z,53.88
2022-08-01T10:40:36.573Z,54.09
2022-08-01T10:43:04.785Z,56.06
2022-08-01T10:45:32.475Z,56.54
2022-08-01T10:48:21.512Z,55.37
2022-08-01T10:50:51.450Z,55.10
2022-08-01T10:53:31.096Z,55.81
2022-08-01T10:56:08.545Z,56.77
2022-08-01T10:58:42.880Z,56.34
2022-08-01T11:01:31.322Z,56.01
2022-08-01T11:04:16.499Z,55.09
2022-08-01T11:07:09.898Z,53.77
2022-08-01T11:09:47.109Z,55.33
2022-08-01T11:12:24.636Z,56.68
2022-08-01T11:15:02.811Z,56.19
2022-08-01T11:17:42.816Z,54.50
2022-08-01T11:20:15.380Z,55.23
2022-08-01T11:23:02.397Z,54.01
2022-08-01T11:26:06.012Z,52.41
2022-08-01T11:28:32.810Z,51.82
2022-08-01T11:31:11.132Z,54.34
2022-08-01T11:33:45.418Z,54.32
2022-08-01T11:36:14.761Z,54.59
2022-08-01T11:38:43.530Z,55.38
2022-08-01T11:41:18.275Z,54.97
2022-08-01T11:44:11.753Z,54.07
2022-08-01T11:47:03.072Z,53.97
2022-08-01T11:49:48.921Z,53.83
2022-08-01T11:52:28.789Z,54.38
2022-08-01T11:55:10.539Z,53.14
2022-08-01T11:57:39.799Z,51.61
2022-08-01T12:00:17.353Z,51.25
2022-08-01T12:02:46.455Z,51.03
2022-08-01T12:05:17.454Z,52.26
2022-08-01T12:07:46.869Z,53.41
2022-08-01T12:10:16.212Z,53.72
2022-08-01T12:12:52.281Z,53.47
2022-08-01T12:15:21.901Z,52.53
2022-08-01T12:17:58.165Z,53.37
2022-08-01T12:20:34.917Z,52.38
2022-08-01T12:23:10.398Z,52.30
2022-08-01T12:25:40.194Z,52.97
2022-08-01T12:28:10.084Z,51.93
2022-08-01T12:30:38.662Z,53.80
2022-08-01T12:33:08.045Z,54.37
2022-08-01T12:35:37.529Z,53.52
2022-08-01T12:38:26.096Z,53.37
2022-08-01T12:40:54.954Z,53.93
2022-08-01T12:43:28.631Z,53.79
2022-08-01T12:45:59.343Z,54.82
2022-08-01T12:48:27.271Z,54.99
2022-08-01T12:50:55.260Z,54.19
2022-08-01T12:53:23.057Z,54.04
2022-08-01T12:55:59.052Z,53.11
2022-08-01T12:58:34.231Z,52.24
2022-08-01T13:01:07.123Z,52.76
2022-08-01T13:03:34.892Z,52.22
2022-08-01T13:06:02.212Z,52.33
2022-08-01T13:08:35.782Z,51.57
2022-08-01T13:11:09.842Z,52.31
2022-08-01T13:13:45.681Z,51.97
2022-08-01T13:16:15.641Z,51.80
2022-08-01T13:18:54.971Z,51.52
2022-08-01T13:21:29.778Z,50.88
2022-08-01T13:24:17.302Z,50.19
2022-08-01T13:26:46.285Z,49.27
2022-08-01T13:29:15.663Z,48.72
2022-08-01T13:31:45.232Z,46.14
2022-08-01T13:34:12.882Z,47.00
2022-08-01T13:36:44.226Z,46.60
2022-08-01T13:39:34.707Z,43.59
2022-08-01T13:42:02.172Z,43.81
2022-08-01T13:44:30.337Z,43.89
2022-08-01T13:46:57.629Z,45.24
2022-08-01T13:49:24.922Z,45.43
2022-08-01T13:52:07.524Z,44.02
2022-08-01T13:54:35.146Z,43.34
2022-08-01T13:57:02.732Z,43.50
2022-08-01T13:59:29.975Z,42.58
2022-08-01T14:01:57.679Z,41.81
2022-08-01T14:04:25.149Z,40.89
2022-08-01T14:06:52.404Z,40.88
2022-08-01T14:09:24.076Z,40.73
2022-08-01T14:11:52.045Z,39.86
2022-08-01T14:14:20.804Z,39.51
2022-08-01T14:16:49.261Z,38.24
2022-08-01T14:19:19.301Z,39.14
2022-08-01T14:21:50.441Z,38.42
2022-08-01T14:24:17.715Z,38.71
2022-08-01T14:26:45.074Z,38.20
2022-08-01T14:29:12.317Z,39.84
2022-08-01T14:31:39.645Z,39.43
2022-08-01T14:34:07.144Z,39.65
2022-08-01T14:36:38.438Z,40.05
2022-08-01T14:39:06.372Z,39.50
2022-08-01T14:41:33.992Z,38.99
2022-08-01T14:44:02.064Z,39.13
2022-08-01T14:46:29.325Z,39.28
2022-08-01T14:48:58.934Z,39.70
2022-08-01T14:51:26.296Z,41.53
2022-08-01T14:53:54.146Z,42.09
2022-08-01T14:56:21.504Z,42.07
2022-08-01T14:58:48.836Z,42.07
2022-08-01T15:01:16.475Z,41.77
2022-08-01T15:03:43.895Z,41.46
2022-08-01T15:06:12.453Z,41.98
2022-08-01T15:08:39.728Z,42.76
2022-08-01T15:11:07.037Z,42.74
2022-08-01T15:13:36.282Z,42.96
2022-08-01T15:16:06.511Z,41.91
2022-08-01T15:18:34.696Z,41.70
2022-08-01T15:21:02.410Z,41.26
2022-08-01T15:23:29.886Z,41.03
2022-08-01T15:25:57.112Z,40.47
2022-08-01T15:28:24.417Z,40.53
2022-08-01T15:30:51.644Z,41.97
2022-08-01T15:33:19.216Z,42.03
2022-08-01T15:35:46.908Z,42.06
2022-08-01T15:38:14.198Z,41.88
2022-08-01T15:40:41.540Z,42.38
2022-08-01T15:43:08.866Z,41.82
2022-08-01T15:45:48.243Z,41.21
2022-08-01T15:48:17.832Z,41.07
2022-08-01T15:50:45.709Z,41.36
2022-08-01T15:53:13.132Z,41.54
2022-08-01T15:55:40.696Z,41.35
2022-08-01T15:58:08.452Z,41.10
2022-08-01T16:00:40.157Z,41.03
2022-08-01T16:03:08.370Z,40.62
2022-08-01T16:05:41.018Z,40.34
2022-08-01T16:08:11.947Z,40.67
2022-08-01T16:10:39.453Z,41.13
2022-08-01T16:13:07.981Z,41.92
2022-08-01T16:15:37.713Z,41.60
2022-08-01T16:18:09.419Z,41.04
2022-08-01T16:20:41.482Z,40.72
2022-08-01T16:23:10.364Z,40.86
2022-08-01T16:25:38.239Z,41.66
2022-08-01T16:28:05.551Z,41.12
2022-08-01T16:30:33.020Z,40.55
2022-08-01T16:33:05.533Z,41.32
2022-08-01T16:35:45.024Z,41.63
2022-08-01T16:38:15.979Z,41.63
2022-08-01T16:40:47.216Z,40.63
2022-08-01T16:43:16.805Z,41.68
2022-08-01T16:45:44.742Z,41.13
2022-08-01T16:48:15.512Z,42.40
2022-08-01T16:50:43.194Z,42.72
2022-08-01T16:53:10.521Z,42.49
2022-08-01T16:55:49.418Z,41.79
2022-08-01T16:58:27.842Z,41.10
2022-08-01T17:00:57.443Z,40.76
2022-08-01T17:03:51.927Z,41.28
2022-08-01T17:06:16.826Z,41.68
2022-08-01T17:08:47.037Z,41.42
2022-08-01T17:11:15.408Z,42.76
2022-08-01T17:13:43.375Z,42.66
2022-08-01T17:16:11.495Z,41.92
2022-08-01T17:18:38.920Z,40.65
2022-08-01T17:21:06.476Z,40.27
2022-08-01T17:23:35.085Z,40.85
2022-08-01T17:26:02.667Z,41.23
2022-08-01T17:28:30.079Z,41.44
2022-08-01T17:30:58.637Z,42.03
2022-08-01T17:33:45.116Z,42.61
2022-08-01T17:36:14.011Z,42.80
2022-08-01T17:38:41.301Z,42.13
2022-08-01T17:41:08.712Z,41.62
2022-08-01T17:43:36.071Z,42.25
2022-08-01T17:46:03.611Z,41.63
2022-08-01T17:48:31.028Z,41.38
2022-08-01T17:50:58.440Z,41.23
2022-08-01T17:53:26.329Z,41.22
2022-08-01T17:55:57.913Z,41.25
2022-08-01T17:58:33.118Z,40.29
2022-08-01T18:01:18.099Z,41.22
2022-08-01T18:03:46.016Z,41.51
2022-08-01T18:06:17.340Z,40.78
2022-08-01T18:08:49.183Z,41.47
2022-08-01T18:11:17.219Z,42.10
2022-08-01T18:13:45.167Z,42.26
2022-08-01T18:16:13.446Z,42.17
2022-08-01T18:18:41.910Z,41.44
2022-08-01T18:21:10.877Z,41.33
2022-08-01T18:23:38.129Z,42.57
2022-08-01T18:26:07.494Z,42.50
2022-08-01T18:28:41.606Z,42.94
2022-08-01T18:31:11.780Z,43.14
2022-08-01T18:33:39.122Z,43.38
2022-08-01T18:36:06.601Z,42.93
2022-08-01T18:38:37.387Z,42.93
2022-08-01T18:41:11.099Z,42.82
2022-08-01T18:43:38.474Z,42.72
2022-08-01T18:46:06.374Z,42.01
2022-08-01T18:48:33.751Z,42.06
2022-08-01T18:51:01.123Z,42.95
2022-08-01T18:53:28.576Z,43.61
2022-08-01T18:55:56.080Z,42.41
2022-08-01T18:58:23.668Z,43.18
2022-08-01T19:00:51.188Z,42.89
2022-08-01T19:03:20.575Z,42.90
2022-08-01T19:05:50.732Z,42.70
2022-08-01T19:08:18.200Z,42.18
2022-08-01T19:10:45.722Z,42.08
2022-08-01T19:13:13.062Z,42.54
2022-08-01T19:15:40.357Z,42.24
2022-08-01T19:18:09.291Z,42.13
2022-08-01T19:20:38.829Z,42.72
2022-08-01T19:23:26.102Z,42.55
2022-08-01T19:25:56.785Z,42.73
2022-08-01T19:28:24.970Z,42.56
2022-08-01T19:30:53.768Z,42.45
2022-08-01T19:33:21.973Z,43.36
2022-08-01T19:35:52.932Z,43.00
2022-08-01T19:38:20.536Z,42.40
2022-08-01T19:40:49.394Z,42.11
2022-08-01T19:43:18.402Z,42.36
2022-08-01T19:45:46.137Z,42.33
2022-08-01T19:48:14.534Z,42.38
2022-08-01T19:50:43.487Z,42.53
2022-08-01T19:53:11.425Z,42.59
2022-08-01T19:55:39.741Z,42.71
2022-08-01T19:58:26.367Z,42.91
2022-08-01T20:00:54.749Z,42.75
2022-08-01T20:03:22.755Z,42.33
2022-08-01T20:05:51.408Z,41.88
2022-08-01T20:08:20.035Z,42.01
2022-08-01T20:10:48.442Z,41.80
2022-08-01T20:13:17.525Z,42.61
2022-08-01T20:15:45.194Z,42.30
2022-08-01T20:18:12.521Z,42.21
2022-08-01T20:20:39.999Z,41.58
2022-08-01T20:23:10.637Z,41.34
2022-08-01T20:25:48.331Z,41.49
2022-08-01T20:28:16.764Z,41.36
2022-08-01T20:30:43.981Z,41.84
2022-08-01T20:33:11.735Z,41.92
2022-08-01T20:35:51.454Z,42.01
2022-08-01T20:38:27.734Z,42.05
2022-08-01T20:41:00.085Z,42.49
2022-08-01T20:43:28.027Z,41.92
2022-08-01T20:45:56.760Z,42.54
2022-08-01T20:48:28.237Z,42.35
2022-08-01T20:51:14.642Z,42.76
2022-08-01T20:53:44.699Z,43.32
2022-08-01T20:56:36.913Z,43.54
2022-08-01T20:59:04.753Z,44.09
2022-08-01T21:01:49.810Z,46.04
2022-08-01T21:04:20.215Z,46.63
2022-08-01T21:06:55.134Z,47.42
2022-08-01T21:09:24.281Z,46.83
2022-08-01T21:12:05.276Z,47.36
2022-08-01T21:14:38.095Z,47.38
2022-08-01T21:17:11.832Z,48.26
2022-08-01T21:19:41.107Z,48.50
2022-08-01T21:22:16.139Z,48.36
2022-08-01T21:24:58.453Z,47.84
2022-08-01T21:27:33.085Z,46.93
2022-08-01T21:30:04.505Z,46.68
2022-08-01T21:32:33.156Z,46.60
2022-08-01T21:35:01.429Z,46.75
2022-08-01T21:37:29.588Z,45.93
2022-08-01T21:40:09.661Z,45.88
2022-08-01T21:42:39.535Z,46.55
2022-08-01T21:45:09.622Z,46.21
2022-08-01T21:47:38.277Z,46.54
2022-08-01T21:50:06.339Z,46.92
2022-08-01T21:53:11.867Z,46.59
2022-08-01T21:55:55.439Z,47.06
2022-08-01T21:58:50.345Z,47.54
2022-08-01T22:01:51.517Z,47.99
2022-08-01T22:04:27.367Z,47.75
2022-08-01T22:06:54.728Z,47.52
2022-08-01T22:09:22.249Z,48.24
2022-08-01T22:12:00.910Z,48.02
2022-08-01T22:14:30.324Z,48.67
2022-08-01T22:16:59.011Z,49.21
2022-08-01T22:19:44.235Z,49.76
2022-08-01T22:22:45.112Z,50.34
2022-08-01T22:25:01.073Z,50.19
2022-08-01T22:28:06.283Z,50.79
2022-08-01T22:30:18.665Z,50.85
2022-08-01T22:33:07.202Z,51.26
2022-08-01T22:35:35.724Z,50.63
2022-08-01T22:38:07.689Z,50.45
2022-08-01T22:40:37.674Z,49.59
2022-08-01T22:43:14.484Z,50.74
2022-08-01T22:45:48.592Z,52.27
2022-08-01T22:48:20.697Z,53.01
2022-08-01T22:50:57.118Z,52.64
2022-08-01T22:53:27.930Z,53.15
2022-08-01T22:55:58.596Z,53.09
2022-08-01T22:58:30.638Z,52.87
2022-08-01T23:01:01.394Z,54.29
2022-08-01T23:03:37.082Z,54.79
2022-08-01T23:06:11.199Z,56.54
2022-08-01T23:08:40.034Z,56.36
2022-08-01T23:11:07.829Z,56.23
2022-08-01T23:13:35.339Z,55.67
2022-08-01T23:16:03.417Z,56.23
2022-08-01T23:18:30.955Z,58.47
2022-08-01T23:20:59.626Z,58.24
2022-08-01T23:23:46.795Z,58.54
2022-08-01T23:26:15.578Z,58.50
2022-08-01T23:28:44.171Z,58.39
2022-08-01T23:31:11.628Z,58.67
2022-08-01T23:33:38.908Z,59.03
2022-08-01T23:36:06.363Z,60.04
2022-08-01T23:38:33.669Z,59.93
2022-08-01T23:41:01.141Z,59.96
2022-08-01T23:43:28.429Z,59.63
2022-08-01T23:46:02.356Z,60.04
2022-08-01T23:48:36.481Z,59.75
2022-08-01T23:51:04.863Z,60.63
2022-08-01T23:53:33.702Z,60.16
2022-08-01T23:56:03.390Z,59.25
2022-08-01T23:58:32.590Z,58.93
